Historyczne dane pomiarowe

Dodano dane terminowe – wersja testowa.

Dane z okresu 1951-2019

Wersja bazy: 1.34 [2019-03-16, lista zmian], aktualizacja planowana na 2019-04-15

Dane meteo z obszaru Polski uzyskane na podstawie danych udostępnionych przez Instytut Meteorologii i Gospodarki Wodnej – Państwowy Instytut Badawczy.

 

Wybierz Datę:    

       

TemperaturaWilgotnośćWiatrCiśnienieOpadyŚniegCzas trwania zjawisk
 Stacja t tx tn tng RH VA  wxwx mslp ppp RRR   cm mm wxwxwxwxwxwxwx
1919-10-11 1.6 6.2 -1.0- 92.0----- 995.0- 2.6--x- 2.0-------
1919-10-12 3.0 7.5 -2.0- 78.0----- 997.7- 0.5--x- 7.4-------
1919-10-13 7.2 12.5 0.2- 78.0----- 991.4- 0.9--x- 6.1-------
1919-10-14 7.2 11.2 4.8- 71.0----- 995.6- 0.0--x- 5.2-------
1919-10-15 5.4 8.2 3.6- 77.0----- 996.2- 0.0--x- 1.5-------
1919-10-16 4.4 6.4 1.5- 76.0----- 999.2- 0.1--x- 2.4-------
1919-10-17 5.1 8.5 -1.2- 75.0-----1012.9- 0.2--x- 4.5-------
1919-10-18 7.5 9.7 6.0- 87.0-----1019.3- 0.0--x- 0.0-------
1919-10-19 8.4 10.6 4.5- 89.0-----1022.8- 0.0--x- 0.0-------
1919-10-20 7.4 9.5 6.3- 95.0-----1023.3- 0.2--x- 0.0-------
1919-10-21 4.6 10.0 1.0- 78.0-----1024.8- 0.0--x- 7.2-------
1919-10-22 3.6 7.8 0.5- 84.0-----1020.2- 0.0--x- 2.2-------
1919-10-23 3.9 7.7 0.8- 86.0-----1012.2- 0.0--x- 0.8-------
1919-10-24 5.4 7.0 1.0- 93.0-----1004.7- 0.2--x- 0.0-------
1919-10-25 6.8 8.5 4.8- 91.0-----1002.9- 1.0--x- 0.0-------
1919-10-26 5.2 7.0 3.9- 94.0----- 998.6- 1.3--x- 3.1-------
1919-10-27 2.8 7.4 0.6- 83.0----- 997.0- 0.1--x- 0.0-------
1919-10-28 5.0 6.8 0.0- 96.0----- 995.2- 16.1--x- 0.0-------
1919-10-29 2.1 6.8 0.4- 91.0----- 999.0- 0.0--x- 0.2-------
1919-10-30 1.2 3.6 0.0- 97.0-----1000.5- 7.2--x- 0.0-------
1919-10-31 -1.1 1.1 -1.6- 77.0-----1006.5- 0.0--x- 0.0-------
1919-11-01 -0.2 2.2 -3.0- 79.0-----1014.9- 0.0--x- 0.0-------
1919-11-02 -2.1 0.0 -3.1- 85.0-----1009.1- 2.1--x- 0.0-------
1919-11-03 -2.7 -2.0 -3.2- 90.0-----1004.2- 4.1--x- 0.0-------
1919-11-04 -2.0 -0.9 -3.7- 96.0-----1004.7- 0.2--x- 0.0-------
1919-11-05 -1.8 -0.1 -3.5- 86.0-----1001.1- 0.0--x- 1.2-------
1919-11-06 -0.4 0.5 -3.1- 97.0----- 983.1- 3.6--x- 0.0-------
1919-11-07 -1.2 0.1 -1.8- 96.0----- 985.3- 3.1--x- 0.0-------
1919-11-08 -3.4 -0.8 -4.2- 89.0----- 998.1- 2.3--x- 0.0-------
1919-11-09 -5.2 -3.9 -5.6- 91.0----- 999.6- 8.0--x- 0.0-------
18.3 ms

 

Źródłem pochodzenia danych jest Instytut Meteorologii i Gospodarki Wodnej – Państwowy Instytut Badawczy. Dane Instytutu Meteorologii i Gospodarki Wodnej – Państwowego Instytutu Badawczego zostały przetworzone.

Dane źródłowe można odnaleźć na stronie https://dane.imgw.pl